sensor_id;sensor_type;location;lat;lon;timestamp;temperature;humidity
24252;DHT22;12380;51.118;4.176;2023-11-21T00:00:14;7.80;99.90
24252;DHT22;12380;51.118;4.176;2023-11-21T00:02:40;7.70;99.90
24252;DHT22;12380;51.118;4.176;2023-11-21T00:05:07;7.90;99.90
24252;DHT22;12380;51.118;4.176;2023-11-21T00:07:33;8.10;99.90
24252;DHT22;12380;51.118;4.176;2023-11-21T00:09:59;8.30;99.90
24252;DHT22;12380;51.118;4.176;2023-11-21T00:12:24;8.20;99.90
24252;DHT22;12380;51.118;4.176;2023-11-21T00:14:50;8.20;99.90
24252;DHT22;12380;51.118;4.176;2023-11-21T00:17:18;8.20;99.90
24252;DHT22;12380;51.118;4.176;2023-11-21T00:19:44;8.20;99.90
24252;DHT22;12380;51.118;4.176;2023-11-21T00:22:09;8.30;99.90
24252;DHT22;12380;51.118;4.176;2023-11-21T00:24:35;8.40;99.90
24252;DHT22;12380;51.118;4.176;2023-11-21T00:27:00;8.70;99.90
24252;DHT22;12380;51.118;4.176;2023-11-21T00:29:26;8.80;99.90
24252;DHT22;12380;51.118;4.176;2023-11-21T00:31:51;8.80;99.90
24252;DHT22;12380;51.118;4.176;2023-11-21T00:34:17;8.70;99.90
24252;DHT22;12380;51.118;4.176;2023-11-21T00:36:42;8.80;99.90
24252;DHT22;12380;51.118;4.176;2023-11-21T00:39:10;9.10;99.90
24252;DHT22;12380;51.118;4.176;2023-11-21T00:41:37;8.90;99.90
24252;DHT22;12380;51.118;4.176;2023-11-21T00:44:03;8.80;99.90
24252;DHT22;12380;51.118;4.176;2023-11-21T00:46:28;8.80;99.90
24252;DHT22;12380;51.118;4.176;2023-11-21T00:48:56;8.70;99.90
24252;DHT22;12380;51.118;4.176;2023-11-21T00:51:22;8.70;99.90
24252;DHT22;12380;51.118;4.176;2023-11-21T00:53:50;8.70;99.90
24252;DHT22;12380;51.118;4.176;2023-11-21T00:56:16;8.80;99.90
24252;DHT22;12380;51.118;4.176;2023-11-21T00:58:41;8.80;99.90
24252;DHT22;12380;51.118;4.176;2023-11-21T01:01:15;8.80;99.90
24252;DHT22;12380;51.118;4.176;2023-11-21T01:03:40;8.70;99.90
24252;DHT22;12380;51.118;4.176;2023-11-21T01:06:06;8.80;99.90
24252;DHT22;12380;51.118;4.176;2023-11-21T01:08:35;8.80;99.90
24252;DHT22;12380;51.118;4.176;2023-11-21T01:11:01;8.80;99.90
24252;DHT22;12380;51.118;4.176;2023-11-21T01:13:27;8.80;99.90
24252;DHT22;12380;51.118;4.176;2023-11-21T01:15:53;8.80;99.90
24252;DHT22;12380;51.118;4.176;2023-11-21T01:18:19;8.80;99.90
24252;DHT22;12380;51.118;4.176;2023-11-21T01:20:44;8.90;99.90
24252;DHT22;12380;51.118;4.176;2023-11-21T01:23:12;9.00;99.90
24252;DHT22;12380;51.118;4.176;2023-11-21T01:25:38;9.00;99.90
24252;DHT22;12380;51.118;4.176;2023-11-21T01:28:03;9.00;99.90
24252;DHT22;12380;51.118;4.176;2023-11-21T01:30:29;9.00;99.90
24252;DHT22;12380;51.118;4.176;2023-11-21T01:32:54;9.00;99.90
24252;DHT22;12380;51.118;4.176;2023-11-21T01:35:22;9.00;99.90
24252;DHT22;12380;51.118;4.176;2023-11-21T01:37:48;9.00;99.90
24252;DHT22;12380;51.118;4.176;2023-11-21T01:40:13;9.00;99.90
24252;DHT22;12380;51.118;4.176;2023-11-21T01:42:39;9.10;99.90
24252;DHT22;12380;51.118;4.176;2023-11-21T01:45:05;9.00;99.90
24252;DHT22;12380;51.118;4.176;2023-11-21T01:47:34;9.00;99.90
24252;DHT22;12380;51.118;4.176;2023-11-21T01:50:01;9.10;99.90
24252;DHT22;12380;51.118;4.176;2023-11-21T01:52:27;9.00;99.90
24252;DHT22;12380;51.118;4.176;2023-11-21T01:54:52;9.10;99.90
24252;DHT22;12380;51.118;4.176;2023-11-21T01:57:19;9.10;99.90
24252;DHT22;12380;51.118;4.176;2023-11-21T01:59:45;9.10;99.90
24252;DHT22;12380;51.118;4.176;2023-11-21T02:02:12;9.10;99.90
24252;DHT22;12380;51.118;4.176;2023-11-21T02:04:38;9.10;99.90
24252;DHT22;12380;51.118;4.176;2023-11-21T02:07:04;9.00;99.90
24252;DHT22;12380;51.118;4.176;2023-11-21T02:09:35;9.10;99.90
24252;DHT22;12380;51.118;4.176;2023-11-21T02:12:03;9.10;99.90
24252;DHT22;12380;51.118;4.176;2023-11-21T02:14:29;9.10;99.90
24252;DHT22;12380;51.118;4.176;2023-11-21T02:16:56;9.00;99.90
24252;DHT22;12380;51.118;4.176;2023-11-21T02:19:25;9.00;99.90
24252;DHT22;12380;51.118;4.176;2023-11-21T02:21:51;9.10;99.90
24252;DHT22;12380;51.118;4.176;2023-11-21T02:24:20;9.00;99.90
24252;DHT22;12380;51.118;4.176;2023-11-21T02:26:46;9.00;99.90
24252;DHT22;12380;51.118;4.176;2023-11-21T02:29:14;9.10;99.90
24252;DHT22;12380;51.118;4.176;2023-11-21T02:31:43;9.10;99.90
24252;DHT22;12380;51.118;4.176;2023-11-21T02:34:16;9.10;99.90
24252;DHT22;12380;51.118;4.176;2023-11-21T02:36:45;9.10;99.90
24252;DHT22;12380;51.118;4.176;2023-11-21T02:39:10;9.10;99.90
24252;DHT22;12380;51.118;4.176;2023-11-21T02:41:39;9.10;99.90
24252;DHT22;12380;51.118;4.176;2023-11-21T02:44:05;9.10;99.90
24252;DHT22;12380;51.118;4.176;2023-11-21T02:46:32;9.10;99.90
24252;DHT22;12380;51.118;4.176;2023-11-21T02:48:59;9.10;99.90
24252;DHT22;12380;51.118;4.176;2023-11-21T02:51:27;9.20;99.90
24252;DHT22;12380;51.118;4.176;2023-11-21T02:53:55;9.20;99.90
24252;DHT22;12380;51.118;4.176;2023-11-21T02:56:24;9.20;99.90
24252;DHT22;12380;51.118;4.176;2023-11-21T02:58:51;9.20;99.90
24252;DHT22;12380;51.118;4.176;2023-11-21T03:01:16;9.20;99.90
24252;DHT22;12380;51.118;4.176;2023-11-21T03:03:42;9.20;99.90
24252;DHT22;12380;51.118;4.176;2023-11-21T03:06:08;9.30;99.90
24252;DHT22;12380;51.118;4.176;2023-11-21T03:08:34;9.30;99.90
24252;DHT22;12380;51.118;4.176;2023-11-21T03:11:00;9.30;99.90
24252;DHT22;12380;51.118;4.176;2023-11-21T03:13:26;9.30;99.90
24252;DHT22;12380;51.118;4.176;2023-11-21T03:15:51;9.30;99.90
24252;DHT22;12380;51.118;4.176;2023-11-21T03:18:17;9.30;99.90
24252;DHT22;12380;51.118;4.176;2023-11-21T03:20:45;9.30;99.90
24252;DHT22;12380;51.118;4.176;2023-11-21T03:23:14;9.30;99.90
24252;DHT22;12380;51.118;4.176;2023-11-21T03:25:40;9.30;99.90
24252;DHT22;12380;51.118;4.176;2023-11-21T03:28:06;9.40;99.90
24252;DHT22;12380;51.118;4.176;2023-11-21T03:30:33;9.40;99.90
24252;DHT22;12380;51.118;4.176;2023-11-21T03:32:59;9.40;99.90
24252;DHT22;12380;51.118;4.176;2023-11-21T03:35:24;9.40;99.90
24252;DHT22;12380;51.118;4.176;2023-11-21T03:37:50;9.40;99.90
24252;DHT22;12380;51.118;4.176;2023-11-21T03:40:15;9.40;99.90
24252;DHT22;12380;51.118;4.176;2023-11-21T03:42:41;9.50;99.90
24252;DHT22;12380;51.118;4.176;2023-11-21T03:45:07;9.60;99.90
24252;DHT22;12380;51.118;4.176;2023-11-21T03:47:34;9.70;99.90
24252;DHT22;12380;51.118;4.176;2023-11-21T03:49:59;9.60;99.90
24252;DHT22;12380;51.118;4.176;2023-11-21T03:52:25;9.50;99.90
24252;DHT22;12380;51.118;4.176;2023-11-21T03:54:50;9.50;99.90
24252;DHT22;12380;51.118;4.176;2023-11-21T03:57:16;9.50;99.90
24252;DHT22;12380;51.118;4.176;2023-11-21T03:59:43;9.50;99.90
24252;DHT22;12380;51.118;4.176;2023-11-21T04:02:11;9.50;99.90
24252;DHT22;12380;51.118;4.176;2023-11-21T04:04:36;9.60;99.90
24252;DHT22;12380;51.118;4.176;2023-11-21T04:07:02;9.60;99.90
24252;DHT22;12380;51.118;4.176;2023-11-21T04:09:28;9.60;99.90
24252;DHT22;12380;51.118;4.176;2023-11-21T04:11:53;9.60;99.90
24252;DHT22;12380;51.118;4.176;2023-11-21T04:14:22;9.60;99.90
24252;DHT22;12380;51.118;4.176;2023-11-21T04:16:48;9.60;99.90
24252;DHT22;12380;51.118;4.176;2023-11-21T04:19:14;9.50;99.90
24252;DHT22;12380;51.118;4.176;2023-11-21T04:21:42;9.50;99.90
24252;DHT22;12380;51.118;4.176;2023-11-21T04:24:10;9.60;99.90
24252;DHT22;12380;51.118;4.176;2023-11-21T04:26:38;9.70;99.90
24252;DHT22;12380;51.118;4.176;2023-11-21T04:29:07;9.70;99.90
24252;DHT22;12380;51.118;4.176;2023-11-21T04:31:32;9.70;99.90
24252;DHT22;12380;51.118;4.176;2023-11-21T04:33:58;9.70;99.90
24252;DHT22;12380;51.118;4.176;2023-11-21T04:36:23;9.70;99.90
24252;DHT22;12380;51.118;4.176;2023-11-21T04:38:49;9.70;99.90
24252;DHT22;12380;51.118;4.176;2023-11-21T04:41:14;9.70;99.90
24252;DHT22;12380;51.118;4.176;2023-11-21T04:43:40;9.80;99.90
24252;DHT22;12380;51.118;4.176;2023-11-21T04:46:05;9.70;99.90
24252;DHT22;12380;51.118;4.176;2023-11-21T04:48:32;9.80;99.90
24252;DHT22;12380;51.118;4.176;2023-11-21T04:50:58;9.90;99.90
24252;DHT22;12380;51.118;4.176;2023-11-21T04:53:23;9.80;99.90
24252;DHT22;12380;51.118;4.176;2023-11-21T04:55:49;9.80;99.90
24252;DHT22;12380;51.118;4.176;2023-11-21T04:58:14;9.80;99.90
24252;DHT22;12380;51.118;4.176;2023-11-21T05:00:40;9.70;99.90
24252;DHT22;12380;51.118;4.176;2023-11-21T05:03:06;9.80;99.90
24252;DHT22;12380;51.118;4.176;2023-11-21T05:05:32;9.80;99.90
24252;DHT22;12380;51.118;4.176;2023-11-21T05:07:59;9.80;99.90
24252;DHT22;12380;51.118;4.176;2023-11-21T05:10:24;9.80;99.90
24252;DHT22;12380;51.118;4.176;2023-11-21T05:12:50;9.80;99.90
24252;DHT22;12380;51.118;4.176;2023-11-21T05:15:16;9.70;99.90
24252;DHT22;12380;51.118;4.176;2023-11-21T05:17:43;9.80;99.90
24252;DHT22;12380;51.118;4.176;2023-11-21T05:20:09;9.80;99.90
24252;DHT22;12380;51.118;4.176;2023-11-21T05:22:35;9.80;99.90
24252;DHT22;12380;51.118;4.176;2023-11-21T05:25:01;9.80;99.90
24252;DHT22;12380;51.118;4.176;2023-11-21T05:27:29;9.80;99.90
24252;DHT22;12380;51.118;4.176;2023-11-21T05:29:56;9.80;99.90
24252;DHT22;12380;51.118;4.176;2023-11-21T05:32:22;9.80;99.90
24252;DHT22;12380;51.118;4.176;2023-11-21T05:34:48;9.80;99.90
24252;DHT22;12380;51.118;4.176;2023-11-21T05:37:16;9.80;99.90
24252;DHT22;12380;51.118;4.176;2023-11-21T05:39:43;9.80;99.90
24252;DHT22;12380;51.118;4.176;2023-11-21T05:42:08;9.80;99.90
24252;DHT22;12380;51.118;4.176;2023-11-21T05:44:36;9.80;99.90
24252;DHT22;12380;51.118;4.176;2023-11-21T05:47:02;9.80;99.90
24252;DHT22;12380;51.118;4.176;2023-11-21T05:49:32;9.90;99.90
24252;DHT22;12380;51.118;4.176;2023-11-21T05:51:57;9.80;99.90
24252;DHT22;12380;51.118;4.176;2023-11-21T05:54:23;9.90;99.90
24252;DHT22;12380;51.118;4.176;2023-11-21T05:56:49;9.80;99.90
24252;DHT22;12380;51.118;4.176;2023-11-21T05:59:15;9.90;99.90
24252;DHT22;12380;51.118;4.176;2023-11-21T06:01:42;9.90;99.90
24252;DHT22;12380;51.118;4.176;2023-11-21T06:04:08;10.00;99.90
24252;DHT22;12380;51.118;4.176;2023-11-21T06:06:35;9.90;99.90
24252;DHT22;12380;51.118;4.176;2023-11-21T06:09:04;9.80;99.90
24252;DHT22;12380;51.118;4.176;2023-11-21T06:11:31;9.90;99.90
24252;DHT22;12380;51.118;4.176;2023-11-21T06:13:57;9.90;99.90
24252;DHT22;12380;51.118;4.176;2023-11-21T06:16:23;9.90;99.90
24252;DHT22;12380;51.118;4.176;2023-11-21T06:18:51;9.90;99.90
24252;DHT22;12380;51.118;4.176;2023-11-21T06:21:19;9.90;99.90
24252;DHT22;12380;51.118;4.176;2023-11-21T06:23:46;9.90;99.90
24252;DHT22;12380;51.118;4.176;2023-11-21T06:26:12;9.90;99.90
24252;DHT22;12380;51.118;4.176;2023-11-21T06:28:38;9.80;99.90
24252;DHT22;12380;51.118;4.176;2023-11-21T06:31:03;9.90;99.90
24252;DHT22;12380;51.118;4.176;2023-11-21T06:33:33;9.90;99.90
24252;DHT22;12380;51.118;4.176;2023-11-21T06:35:59;9.90;99.90
24252;DHT22;12380;51.118;4.176;2023-11-21T06:38:28;10.30;99.90
24252;DHT22;12380;51.118;4.176;2023-11-21T06:40:55;10.20;99.90
24252;DHT22;12380;51.118;4.176;2023-11-21T06:43:21;10.10;99.90
24252;DHT22;12380;51.118;4.176;2023-11-21T06:45:47;10.00;99.90
24252;DHT22;12380;51.118;4.176;2023-11-21T06:48:12;10.00;99.90
24252;DHT22;12380;51.118;4.176;2023-11-21T06:50:38;10.00;99.90
24252;DHT22;12380;51.118;4.176;2023-11-21T06:53:03;10.00;99.90
24252;DHT22;12380;51.118;4.176;2023-11-21T06:55:32;10.10;99.90
24252;DHT22;12380;51.118;4.176;2023-11-21T06:57:57;10.10;99.90
24252;DHT22;12380;51.118;4.176;2023-11-21T07:00:23;10.10;99.90
24252;DHT22;12380;51.118;4.176;2023-11-21T07:02:49;10.10;99.90
24252;DHT22;12380;51.118;4.176;2023-11-21T07:05:14;10.10;99.90
24252;DHT22;12380;51.118;4.176;2023-11-21T07:07:40;10.10;99.90
24252;DHT22;12380;51.118;4.176;2023-11-21T07:10:06;10.10;99.90
24252;DHT22;12380;51.118;4.176;2023-11-21T07:12:33;10.10;99.90
24252;DHT22;12380;51.118;4.176;2023-11-21T07:14:59;10.30;99.90
24252;DHT22;12380;51.118;4.176;2023-11-21T07:17:25;10.30;99.90
24252;DHT22;12380;51.118;4.176;2023-11-21T07:19:50;10.20;99.90
24252;DHT22;12380;51.118;4.176;2023-11-21T07:22:16;10.40;99.90
24252;DHT22;12380;51.118;4.176;2023-11-21T07:24:49;10.40;99.90
24252;DHT22;12380;51.118;4.176;2023-11-21T07:27:17;10.70;99.90
24252;DHT22;12380;51.118;4.176;2023-11-21T07:29:43;10.60;99.90
24252;DHT22;12380;51.118;4.176;2023-11-21T07:32:09;10.40;99.90
24252;DHT22;12380;51.118;4.176;2023-11-21T07:34:35;10.40;99.90
24252;DHT22;12380;51.118;4.176;2023-11-21T07:37:01;10.50;99.90
24252;DHT22;12380;51.118;4.176;2023-11-21T07:39:27;10.30;99.90
24252;DHT22;12380;51.118;4.176;2023-11-21T07:41:55;10.30;99.90
24252;DHT22;12380;51.118;4.176;2023-11-21T07:44:20;10.30;99.90
24252;DHT22;12380;51.118;4.176;2023-11-21T07:46:47;10.50;99.90
24252;DHT22;12380;51.118;4.176;2023-11-21T07:49:12;10.60;99.90
24252;DHT22;12380;51.118;4.176;2023-11-21T07:51:46;10.50;99.90
24252;DHT22;12380;51.118;4.176;2023-11-21T07:54:11;10.40;99.90
24252;DHT22;12380;51.118;4.176;2023-11-21T07:56:37;10.50;99.90
24252;DHT22;12380;51.118;4.176;2023-11-21T07:59:03;10.60;99.90
24252;DHT22;12380;51.118;4.176;2023-11-21T08:01:29;10.60;99.90
24252;DHT22;12380;51.118;4.176;2023-11-21T08:03:55;10.40;99.90
24252;DHT22;12380;51.118;4.176;2023-11-21T08:06:24;10.30;99.90
24252;DHT22;12380;51.118;4.176;2023-11-21T08:08:51;10.30;99.90
24252;DHT22;12380;51.118;4.176;2023-11-21T08:11:16;10.40;99.90
24252;DHT22;12380;51.118;4.176;2023-11-21T08:13:44;10.50;99.90
24252;DHT22;12380;51.118;4.176;2023-11-21T08:16:12;10.40;99.90
24252;DHT22;12380;51.118;4.176;2023-11-21T08:18:44;10.60;99.90
24252;DHT22;12380;51.118;4.176;2023-11-21T08:21:12;10.70;99.90
24252;DHT22;12380;51.118;4.176;2023-11-21T08:23:37;10.80;99.90
24252;DHT22;12380;51.118;4.176;2023-11-21T08:26:04;10.90;99.90
24252;DHT22;12380;51.118;4.176;2023-11-21T08:28:30;10.80;99.90
24252;DHT22;12380;51.118;4.176;2023-11-21T08:30:58;10.80;99.90
24252;DHT22;12380;51.118;4.176;2023-11-21T08:33:26;10.80;99.90
24252;DHT22;12380;51.118;4.176;2023-11-21T08:35:54;10.80;99.90
24252;DHT22;12380;51.118;4.176;2023-11-21T08:38:20;10.90;99.90
24252;DHT22;12380;51.118;4.176;2023-11-21T08:40:45;11.10;99.90
24252;DHT22;12380;51.118;4.176;2023-11-21T08:43:11;11.10;99.90
24252;DHT22;12380;51.118;4.176;2023-11-21T08:45:39;11.40;99.90
24252;DHT22;12380;51.118;4.176;2023-11-21T08:48:04;11.70;99.90
24252;DHT22;12380;51.118;4.176;2023-11-21T08:50:30;12.10;99.90
24252;DHT22;12380;51.118;4.176;2023-11-21T08:52:56;12.10;99.90
24252;DHT22;12380;51.118;4.176;2023-11-21T08:55:21;11.80;99.90
24252;DHT22;12380;51.118;4.176;2023-11-21T08:57:47;11.80;99.90
24252;DHT22;12380;51.118;4.176;2023-11-21T09:00:13;11.90;99.90
24252;DHT22;12380;51.118;4.176;2023-11-21T09:02:42;11.80;99.90
24252;DHT22;12380;51.118;4.176;2023-11-21T09:05:12;12.00;99.90
24252;DHT22;12380;51.118;4.176;2023-11-21T09:07:39;11.90;99.90
24252;DHT22;12380;51.118;4.176;2023-11-21T09:10:05;11.80;99.90
24252;DHT22;12380;51.118;4.176;2023-11-21T09:12:33;12.00;99.90
24252;DHT22;12380;51.118;4.176;2023-11-21T09:15:03;12.20;99.90
24252;DHT22;12380;51.118;4.176;2023-11-21T09:17:30;12.20;99.90
24252;DHT22;12380;51.118;4.176;2023-11-21T09:19:55;12.20;99.90
24252;DHT22;12380;51.118;4.176;2023-11-21T09:22:22;12.40;99.90
24252;DHT22;12380;51.118;4.176;2023-11-21T09:24:50;12.60;99.90
24252;DHT22;12380;51.118;4.176;2023-11-21T09:27:15;12.90;99.90
24252;DHT22;12380;51.118;4.176;2023-11-21T09:29:45;13.40;99.90
24252;DHT22;12380;51.118;4.176;2023-11-21T09:32:13;13.60;99.90
24252;DHT22;12380;51.118;4.176;2023-11-21T09:34:39;13.60;99.90
24252;DHT22;12380;51.118;4.176;2023-11-21T09:37:05;13.50;99.90
24252;DHT22;12380;51.118;4.176;2023-11-21T09:39:32;13.50;99.90
24252;DHT22;12380;51.118;4.176;2023-11-21T09:47:14;13.40;99.90
24252;DHT22;12380;51.118;4.176;2023-11-21T09:49:42;13.00;99.90
24252;DHT22;12380;51.118;4.176;2023-11-21T09:52:12;12.70;99.90
24252;DHT22;12380;51.118;4.176;2023-11-21T09:54:40;12.50;99.90
24252;DHT22;12380;51.118;4.176;2023-11-21T09:57:06;12.30;99.90
24252;DHT22;12380;51.118;4.176;2023-11-21T09:59:31;12.40;99.90
24252;DHT22;12380;51.118;4.176;2023-11-21T10:02:01;12.30;99.90
24252;DHT22;12380;51.118;4.176;2023-11-21T10:04:27;12.50;99.90
24252;DHT22;12380;51.118;4.176;2023-11-21T10:06:53;12.40;99.90
24252;DHT22;12380;51.118;4.176;2023-11-21T10:09:19;12.40;99.90
24252;DHT22;12380;51.118;4.176;2023-11-21T10:11:46;12.50;99.90
24252;DHT22;12380;51.118;4.176;2023-11-21T10:14:12;12.50;99.90
24252;DHT22;12380;51.118;4.176;2023-11-21T10:16:40;12.60;99.90
24252;DHT22;12380;51.118;4.176;2023-11-21T10:19:06;12.90;99.90
24252;DHT22;12380;51.118;4.176;2023-11-21T10:21:35;13.00;99.90
24252;DHT22;12380;51.118;4.176;2023-11-21T10:24:01;12.90;99.90
24252;DHT22;12380;51.118;4.176;2023-11-21T10:26:27;13.00;99.90
24252;DHT22;12380;51.118;4.176;2023-11-21T10:29:00;13.50;99.90
24252;DHT22;12380;51.118;4.176;2023-11-21T10:31:31;13.30;99.90
24252;DHT22;12380;51.118;4.176;2023-11-21T10:36:38;13.40;99.90
24252;DHT22;12380;51.118;4.176;2023-11-21T10:39:04;13.70;99.90
24252;DHT22;12380;51.118;4.176;2023-11-21T10:41:35;13.70;99.90
24252;DHT22;12380;51.118;4.176;2023-11-21T10:44:01;13.80;99.90
24252;DHT22;12380;51.118;4.176;2023-11-21T10:46:29;13.70;99.90
24252;DHT22;12380;51.118;4.176;2023-11-21T10:48:56;13.60;99.90
24252;DHT22;12380;51.118;4.176;2023-11-21T10:51:22;13.60;99.90
24252;DHT22;12380;51.118;4.176;2023-11-21T10:53:47;13.60;99.90
24252;DHT22;12380;51.118;4.176;2023-11-21T10:56:16;13.70;99.90
24252;DHT22;12380;51.118;4.176;2023-11-21T10:58:45;13.60;99.90
24252;DHT22;12380;51.118;4.176;2023-11-21T11:01:10;13.40;99.90
24252;DHT22;12380;51.118;4.176;2023-11-21T11:03:37;13.10;99.90
24252;DHT22;12380;51.118;4.176;2023-11-21T11:06:04;13.10;99.90
24252;DHT22;12380;51.118;4.176;2023-11-21T11:08:30;13.20;99.90
24252;DHT22;12380;51.118;4.176;2023-11-21T11:10:56;13.10;99.90
24252;DHT22;12380;51.118;4.176;2023-11-21T11:13:23;13.00;99.90
24252;DHT22;12380;51.118;4.176;2023-11-21T11:15:52;12.90;99.90
24252;DHT22;12380;51.118;4.176;2023-11-21T11:18:24;12.80;99.90
24252;DHT22;12380;51.118;4.176;2023-11-21T11:20:50;12.80;99.90
24252;DHT22;12380;51.118;4.176;2023-11-21T11:23:41;12.50;99.90
24252;DHT22;12380;51.118;4.176;2023-11-21T11:28:47;12.40;99.90
24252;DHT22;12380;51.118;4.176;2023-11-21T11:33:58;12.50;99.90
24252;DHT22;12380;51.118;4.176;2023-11-21T11:36:41;12.40;99.90
24252;DHT22;12380;51.118;4.176;2023-11-21T11:39:42;12.40;99.90
24252;DHT22;12380;51.118;4.176;2023-11-21T11:42:05;12.50;99.90
24252;DHT22;12380;51.118;4.176;2023-11-21T11:47:15;12.40;99.90
24252;DHT22;12380;51.118;4.176;2023-11-21T11:49:57;12.50;99.90
24252;DHT22;12380;51.118;4.176;2023-11-21T11:55:10;12.40;99.90
24252;DHT22;12380;51.118;4.176;2023-11-21T11:57:42;12.50;99.90
24252;DHT22;12380;51.118;4.176;2023-11-21T12:02:37;12.90;99.90
24252;DHT22;12380;51.118;4.176;2023-11-21T12:05:16;13.00;99.90
24252;DHT22;12380;51.118;4.176;2023-11-21T12:07:53;12.90;99.90
24252;DHT22;12380;51.118;4.176;2023-11-21T12:10:20;12.70;99.90
24252;DHT22;12380;51.118;4.176;2023-11-21T12:12:49;12.90;99.90
24252;DHT22;12380;51.118;4.176;2023-11-21T12:15:18;12.70;99.90
24252;DHT22;12380;51.118;4.176;2023-11-21T12:17:46;12.50;99.90
24252;DHT22;12380;51.118;4.176;2023-11-21T12:20:16;12.70;99.90
24252;DHT22;12380;51.118;4.176;2023-11-21T12:22:43;12.60;99.90
24252;DHT22;12380;51.118;4.176;2023-11-21T12:25:09;12.50;99.90
24252;DHT22;12380;51.118;4.176;2023-11-21T12:27:35;12.50;99.90
24252;DHT22;12380;51.118;4.176;2023-11-21T12:30:00;12.70;99.90
24252;DHT22;12380;51.118;4.176;2023-11-21T12:32:26;12.60;99.90
24252;DHT22;12380;51.118;4.176;2023-11-21T12:34:52;12.40;99.90
24252;DHT22;12380;51.118;4.176;2023-11-21T12:37:17;12.30;99.90
24252;DHT22;12380;51.118;4.176;2023-11-21T12:39:45;12.10;99.90
24252;DHT22;12380;51.118;4.176;2023-11-21T12:42:11;12.20;99.90
24252;DHT22;12380;51.118;4.176;2023-11-21T12:44:36;12.30;99.90
24252;DHT22;12380;51.118;4.176;2023-11-21T12:47:06;12.40;99.90
24252;DHT22;12380;51.118;4.176;2023-11-21T12:49:31;12.40;99.90
24252;DHT22;12380;51.118;4.176;2023-11-21T12:51:59;12.60;99.90
24252;DHT22;12380;51.118;4.176;2023-11-21T12:54:24;12.40;99.90
24252;DHT22;12380;51.118;4.176;2023-11-21T12:56:52;12.30;99.90
24252;DHT22;12380;51.118;4.176;2023-11-21T12:59:20;12.30;99.90
24252;DHT22;12380;51.118;4.176;2023-11-21T13:01:46;12.20;99.90
24252;DHT22;12380;51.118;4.176;2023-11-21T13:04:12;12.40;99.90
24252;DHT22;12380;51.118;4.176;2023-11-21T13:06:37;12.30;99.90
24252;DHT22;12380;51.118;4.176;2023-11-21T13:09:09;12.10;99.90
24252;DHT22;12380;51.118;4.176;2023-11-21T13:11:41;12.10;99.90
24252;DHT22;12380;51.118;4.176;2023-11-21T13:14:07;12.10;99.90
24252;DHT22;12380;51.118;4.176;2023-11-21T13:16:32;11.90;99.90
24252;DHT22;12380;51.118;4.176;2023-11-21T13:18:58;12.10;99.90
24252;DHT22;12380;51.118;4.176;2023-11-21T13:21:23;11.90;99.90
24252;DHT22;12380;51.118;4.176;2023-11-21T13:23:49;12.10;99.90
24252;DHT22;12380;51.118;4.176;2023-11-21T13:26:18;12.00;99.90
24252;DHT22;12380;51.118;4.176;2023-11-21T13:28:45;11.80;99.90
24252;DHT22;12380;51.118;4.176;2023-11-21T13:31:12;12.10;99.90
24252;DHT22;12380;51.118;4.176;2023-11-21T13:33:47;12.10;99.90
24252;DHT22;12380;51.118;4.176;2023-11-21T13:36:16;12.20;99.90
24252;DHT22;12380;51.118;4.176;2023-11-21T13:38:50;12.20;99.90
24252;DHT22;12380;51.118;4.176;2023-11-21T13:41:16;12.10;99.90
24252;DHT22;12380;51.118;4.176;2023-11-21T13:43:43;12.00;99.90
24252;DHT22;12380;51.118;4.176;2023-11-21T13:46:15;12.10;99.90
24252;DHT22;12380;51.118;4.176;2023-11-21T13:48:47;12.00;99.90
24252;DHT22;12380;51.118;4.176;2023-11-21T13:51:21;11.90;99.90
24252;DHT22;12380;51.118;4.176;2023-11-21T13:53:54;12.00;99.90
24252;DHT22;12380;51.118;4.176;2023-11-21T13:56:20;11.90;99.90
24252;DHT22;12380;51.118;4.176;2023-11-21T13:58:49;11.70;99.90
24252;DHT22;12380;51.118;4.176;2023-11-21T14:01:22;11.80;99.90
24252;DHT22;12380;51.118;4.176;2023-11-21T14:03:58;11.80;99.90
24252;DHT22;12380;51.118;4.176;2023-11-21T14:06:33;11.70;99.90
24252;DHT22;12380;51.118;4.176;2023-11-21T14:09:05;11.80;99.90
24252;DHT22;12380;51.118;4.176;2023-11-21T14:11:31;11.80;99.90
24252;DHT22;12380;51.118;4.176;2023-11-21T14:13:57;11.60;99.90
24252;DHT22;12380;51.118;4.176;2023-11-21T14:16:24;11.70;99.90
24252;DHT22;12380;51.118;4.176;2023-11-21T14:18:50;11.80;99.90
24252;DHT22;12380;51.118;4.176;2023-11-21T14:21:21;11.70;99.90
24252;DHT22;12380;51.118;4.176;2023-11-21T14:23:47;11.70;99.90
24252;DHT22;12380;51.118;4.176;2023-11-21T14:26:14;11.70;99.90
24252;DHT22;12380;51.118;4.176;2023-11-21T14:28:41;11.80;99.90
24252;DHT22;12380;51.118;4.176;2023-11-21T14:31:10;12.00;99.90
24252;DHT22;12380;51.118;4.176;2023-11-21T14:33:40;11.80;99.90
24252;DHT22;12380;51.118;4.176;2023-11-21T14:36:06;12.00;99.90
24252;DHT22;12380;51.118;4.176;2023-11-21T14:38:35;12.00;99.90
24252;DHT22;12380;51.118;4.176;2023-11-21T14:41:01;11.80;99.90
24252;DHT22;12380;51.118;4.176;2023-11-21T14:43:26;11.60;99.90
24252;DHT22;12380;51.118;4.176;2023-11-21T14:45:55;11.60;99.90
24252;DHT22;12380;51.118;4.176;2023-11-21T14:48:22;11.80;99.90
24252;DHT22;12380;51.118;4.176;2023-11-21T14:51:10;11.70;99.90
24252;DHT22;12380;51.118;4.176;2023-11-21T14:53:51;11.80;99.90
24252;DHT22;12380;51.118;4.176;2023-11-21T14:56:22;11.90;99.90
24252;DHT22;12380;51.118;4.176;2023-11-21T14:58:57;11.90;99.90
24252;DHT22;12380;51.118;4.176;2023-11-21T15:01:25;11.80;99.90
24252;DHT22;12380;51.118;4.176;2023-11-21T15:04:26;11.80;99.90
24252;DHT22;12380;51.118;4.176;2023-11-21T15:07:05;11.90;99.90
24252;DHT22;12380;51.118;4.176;2023-11-21T15:09:31;11.80;99.90
24252;DHT22;12380;51.118;4.176;2023-11-21T15:11:57;11.70;99.90
24252;DHT22;12380;51.118;4.176;2023-11-21T15:14:29;11.80;99.90
24252;DHT22;12380;51.118;4.176;2023-11-21T15:16:57;11.80;99.90
24252;DHT22;12380;51.118;4.176;2023-11-21T15:19:27;11.70;99.90
24252;DHT22;12380;51.118;4.176;2023-11-21T15:21:56;11.60;99.90
24252;DHT22;12380;51.118;4.176;2023-11-21T15:24:21;11.70;99.90
24252;DHT22;12380;51.118;4.176;2023-11-21T15:26:47;11.70;99.90
24252;DHT22;12380;51.118;4.176;2023-11-21T15:29:13;11.60;99.90
24252;DHT22;12380;51.118;4.176;2023-11-21T15:31:40;11.60;99.90
24252;DHT22;12380;51.118;4.176;2023-11-21T15:34:11;11.80;99.90
24252;DHT22;12380;51.118;4.176;2023-11-21T15:36:36;11.70;99.90
24252;DHT22;12380;51.118;4.176;2023-11-21T15:39:04;11.60;99.90
24252;DHT22;12380;51.118;4.176;2023-11-21T15:41:30;11.70;99.90
24252;DHT22;12380;51.118;4.176;2023-11-21T15:43:58;11.60;99.90
24252;DHT22;12380;51.118;4.176;2023-11-21T15:46:23;11.50;99.90
24252;DHT22;12380;51.118;4.176;2023-11-21T15:48:49;11.40;99.90
24252;DHT22;12380;51.118;4.176;2023-11-21T15:51:20;11.30;99.90
24252;DHT22;12380;51.118;4.176;2023-11-21T15:53:47;11.30;99.90
24252;DHT22;12380;51.118;4.176;2023-11-21T15:56:13;11.40;99.90
24252;DHT22;12380;51.118;4.176;2023-11-21T15:58:39;11.50;99.90